JA86GR NZHK-NZHT

Flight info

Callsign JA86GR
Flight time 0h 39m
Altitude 12000
Route HK 43S70 OREVU
Aircraft HDJT/M-V/N

Departure

Time 2026-04-15 09:11
Airport Hokitika Airfield (NZHK)

Arrival

Time 2026-04-15 09:50
Airport Haast Aerodrome (NZHT)
Time Latitude Longitude Altitude Speed Heading
2026-04-15 08:59 -42.71463 170.98552 133 ft 0 kts 255°
2026-04-15 09:07 -42.71461 170.98541 133 ft 1 kts 331°
2026-04-15 09:07 -42.71434 170.98543 132 ft 12 kts 353°
2026-04-15 09:08 -42.71339 170.98522 130 ft 14 kts 359°
2026-04-15 09:08 -42.71235 170.98543 129 ft 18 kts 357°
2026-04-15 09:08 -42.71125 170.98466 127 ft 14 kts 278°
2026-04-15 09:08 -42.71161 170.98384 128 ft 8 kts 236°
2026-04-15 09:09 -42.71192 170.98320 127 ft 11 kts 238°
2026-04-15 09:09 -42.71249 170.98197 126 ft 15 kts 240°
2026-04-15 09:09 -42.71301 170.98084 127 ft 14 kts 245°
2026-04-15 09:09 -42.71347 170.98026 124 ft 1 kts 134°
2026-04-15 09:10 -42.71347 170.98049 126 ft 4 kts 64°
2026-04-15 09:10 -42.71295 170.98121 123 ft 36 kts 55°
2026-04-15 09:10 -42.71005 170.98706 122 ft 114 kts 56°
2026-04-15 09:10 -42.70498 170.99811 478 ft 133 kts 55°
2026-04-15 09:11 -42.69976 171.00773 1153 ft 143 kts 33°
2026-04-15 09:11 -42.69072 171.01295 1974 ft 125 kts 350°
2026-04-15 09:11 -42.68174 171.01310 2661 ft 144 kts
2026-04-15 09:11 -42.67285 171.02183 3041 ft 179 kts 58°
2026-04-15 09:12 -42.67128 171.03895 3742 ft 191 kts 102°
2026-04-15 09:12 -42.67241 171.05713 4571 ft 197 kts 85°
2026-04-15 09:12 -42.66756 171.07434 5368 ft 195 kts 40°
2026-04-15 09:12 -42.65650 171.08252 6185 ft 176 kts 353°
2026-04-15 09:13 -42.64582 171.07827 7034 ft 152 kts 308°
2026-04-15 09:13 -42.64228 171.06609 7903 ft 142 kts 266°
2026-04-15 09:13 -42.64256 171.05283 8838 ft 139 kts 268°
2026-04-15 09:13 -42.64397 171.04001 9720 ft 138 kts 262°
2026-04-15 09:14 -42.64743 171.02765 10530 ft 141 kts 251°
2026-04-15 09:14 -42.65357 171.01676 11321 ft 150 kts 235°
2026-04-15 09:14 -42.66250 171.00892 11993 ft 158 kts 222°
2026-04-15 09:14 -42.67284 171.00179 11994 ft 168 kts 222°
2026-04-15 09:15 -42.68289 170.99457 11996 ft 162 kts 225°
2026-04-15 09:15 -42.69259 170.98675 11993 ft 163 kts 223°
2026-04-15 09:15 -42.70370 170.98114 11996 ft 177 kts 208°
2026-04-15 09:15 -42.71601 170.97944 12003 ft 190 kts 192°
2026-04-15 09:16 -42.72958 170.98265 12009 ft 204 kts 173°
2026-04-15 09:16 -42.74233 170.99137 12009 ft 217 kts 153°
2026-04-15 09:16 -42.75333 171.00611 12009 ft 226 kts 130°
2026-04-15 09:16 -42.75923 171.02579 12009 ft 229 kts 90°
2026-04-15 09:17 -42.75627 171.04630 12010 ft 213 kts 47°
2026-04-15 09:17 -42.74636 171.05892 12011 ft 181 kts
2026-04-15 09:17 -42.73538 171.05940 12018 ft 146 kts 322°
2026-04-15 09:17 -42.72816 171.05082 12012 ft 136 kts 303°
2026-04-15 09:18 -42.72234 171.04106 12003 ft 135 kts 303°
2026-04-15 09:18 -42.71796 171.03009 12017 ft 133 kts 275°
2026-04-15 09:18 -42.72157 171.01799 12021 ft 148 kts 245°
2026-04-15 09:18 -42.72816 171.00707 12004 ft 149 kts 243°
2026-04-15 09:19 -42.73349 170.99562 12010 ft 141 kts 256°
2026-04-15 09:19 -42.73719 170.98360 12010 ft 140 kts 258°
2026-04-15 09:19 -42.74066 170.97134 12005 ft 140 kts 258°
2026-04-15 09:19 -42.74411 170.95890 12010 ft 139 kts 258°
2026-04-15 09:20 -42.74744 170.94664 12007 ft 139 kts 259°
2026-04-15 09:20 -42.75076 170.93448 12006 ft 140 kts 259°
2026-04-15 09:20 -42.75413 170.92206 12007 ft 140 kts 258°
2026-04-15 09:20 -42.75760 170.90915 12011 ft 155 kts 258°
2026-04-15 09:21 -42.76155 170.89439 12017 ft 179 kts 257°
2026-04-15 09:21 -42.76616 170.87737 12017 ft 203 kts 256°
2026-04-15 09:21 -42.77139 170.85819 12017 ft 227 kts 256°
2026-04-15 09:21 -42.77708 170.83717 12015 ft 250 kts 255°
2026-04-15 09:22 -42.78334 170.81407 12016 ft 272 kts 255°
2026-04-15 09:22 -42.79012 170.78930 12011 ft 280 kts 255°
2026-04-15 09:22 -42.79680 170.76472 12009 ft 281 kts 255°
2026-04-15 09:22 -42.80321 170.74077 12010 ft 282 kts 255°
2026-04-15 09:23 -42.81001 170.71565 12007 ft 282 kts 255°
2026-04-15 09:23 -42.81680 170.69048 12007 ft 282 kts 255°
2026-04-15 09:23 -42.82330 170.66616 12009 ft 282 kts 255°
2026-04-15 09:23 -42.82998 170.64146 12008 ft 281 kts 255°
2026-04-15 09:24 -42.83661 170.61675 12009 ft 281 kts 255°
2026-04-15 09:24 -42.84332 170.59163 12007 ft 281 kts 255°
2026-04-15 09:24 -42.84998 170.56688 12007 ft 281 kts 255°
2026-04-15 09:24 -42.85671 170.54170 12010 ft 281 kts 255°
2026-04-15 09:25 -42.86334 170.51688 12009 ft 281 kts 255°
2026-04-15 09:25 -42.87009 170.49171 12009 ft 280 kts 255°
2026-04-15 09:25 -42.87675 170.46666 12010 ft 281 kts 255°
2026-04-15 09:25 -42.88336 170.44181 12012 ft 281 kts 254°
2026-04-15 09:26 -42.89007 170.41668 12012 ft 280 kts 254°
2026-04-15 09:26 -42.89667 170.39193 12012 ft 280 kts 254°
2026-04-15 09:26 -42.90331 170.36679 12012 ft 281 kts 254°
2026-04-15 09:26 -42.91001 170.34169 12012 ft 280 kts 254°
2026-04-15 09:27 -42.91658 170.31691 12012 ft 280 kts 254°
2026-04-15 09:27 -42.92323 170.29166 12011 ft 281 kts 254°
2026-04-15 09:27 -42.92983 170.26684 12012 ft 281 kts 254°
2026-04-15 09:27 -42.93651 170.24155 12013 ft 281 kts 254°
2026-04-15 09:28 -42.94306 170.21668 12013 ft 281 kts 254°
2026-04-15 09:28 -42.94969 170.19169 12013 ft 281 kts 254°
2026-04-15 09:28 -42.95633 170.16639 12010 ft 281 kts 254°
2026-04-15 09:28 -42.96294 170.14122 12012 ft 282 kts 254°
2026-04-15 09:29 -42.96953 170.11629 12013 ft 281 kts 253°
2026-04-15 09:29 -42.97616 170.09098 12012 ft 281 kts 253°
2026-04-15 09:29 -42.98272 170.06603 12015 ft 282 kts 253°
2026-04-15 09:29 -42.98936 170.04069 12014 ft 282 kts 253°
2026-04-15 09:30 -42.99695 170.01579 12014 ft 284 kts 246°
2026-04-15 09:30 -43.00761 169.99320 12014 ft 287 kts 238°
2026-04-15 09:30 -43.02112 169.97264 12010 ft 293 kts 229°
2026-04-15 09:30 -43.03625 169.95382 12012 ft 292 kts 229°
2026-04-15 09:31 -43.05074 169.93470 12014 ft 292 kts 230°
2026-04-15 09:31 -43.06542 169.91534 12012 ft 292 kts 229°
2026-04-15 09:31 -43.08018 169.89651 12011 ft 293 kts 229°
2026-04-15 09:31 -43.09503 169.87740 12010 ft 292 kts 229°
2026-04-15 09:32 -43.10978 169.85816 12012 ft 292 kts 229°
2026-04-15 09:32 -43.12440 169.83924 12012 ft 292 kts 229°
2026-04-15 09:32 -43.13917 169.82013 12012 ft 291 kts 229°
2026-04-15 09:32 -43.15393 169.80091 12005 ft 292 kts 229°
2026-04-15 09:33 -43.16852 169.78201 12004 ft 291 kts 229°
2026-04-15 09:33 -43.18330 169.76283 12005 ft 292 kts 229°
2026-04-15 09:33 -43.19804 169.74360 12008 ft 291 kts 229°
2026-04-15 09:33 -43.21281 169.72441 12005 ft 292 kts 229°
2026-04-15 09:34 -43.22741 169.70543 12008 ft 292 kts 229°
2026-04-15 09:34 -43.24191 169.68647 12018 ft 291 kts 229°
2026-04-15 09:34 -43.25599 169.66827 11793 ft 272 kts 229°
2026-04-15 09:34 -43.26900 169.65141 11392 ft 250 kts 230°
2026-04-15 09:35 -43.28116 169.63541 10987 ft 232 kts 230°
2026-04-15 09:35 -43.29242 169.62071 10599 ft 219 kts 231°
2026-04-15 09:35 -43.30333 169.60639 10210 ft 214 kts 231°
2026-04-15 09:35 -43.31393 169.59246 9842 ft 213 kts 231°
2026-04-15 09:36 -43.32431 169.57888 9489 ft 212 kts 230°
2026-04-15 09:36 -43.33499 169.56492 9084 ft 210 kts 230°
2026-04-15 09:36 -43.34544 169.55123 8689 ft 209 kts 230°
2026-04-15 09:36 -43.35599 169.53740 8292 ft 208 kts 230°
2026-04-15 09:37 -43.36649 169.52364 7900 ft 206 kts 230°
2026-04-15 09:37 -43.37672 169.51023 7519 ft 204 kts 229°
2026-04-15 09:37 -43.38701 169.49671 7136 ft 204 kts 229°
2026-04-15 09:37 -43.39729 169.48322 6760 ft 203 kts 229°
2026-04-15 09:38 -43.40738 169.46999 6388 ft 202 kts 229°
2026-04-15 09:38 -43.41751 169.45665 6020 ft 200 kts 229°
2026-04-15 09:38 -43.42758 169.44343 5628 ft 198 kts 229°
2026-04-15 09:38 -43.43738 169.43052 5241 ft 196 kts 228°
2026-04-15 09:39 -43.44714 169.41767 4863 ft 195 kts 228°
2026-04-15 09:39 -43.45690 169.40483 4478 ft 192 kts 228°
2026-04-15 09:39 -43.46656 169.39212 4306 ft 188 kts 227°
2026-04-15 09:39 -43.47610 169.37953 4306 ft 190 kts 227°
2026-04-15 09:40 -43.48557 169.36705 4312 ft 192 kts 227°
2026-04-15 09:40 -43.49529 169.35421 4309 ft 195 kts 227°
2026-04-15 09:40 -43.50536 169.34086 4315 ft 217 kts 227°
2026-04-15 09:40 -43.50918 169.33577 4317 ft 232 kts 227°
2026-04-15 09:41 -43.51176 169.33234 4319 ft 243 kts 227°
2026-04-15 09:41 -43.52467 169.31526 4314 ft 255 kts 226°
2026-04-15 09:41 -43.53720 169.29896 4308 ft 247 kts 226°
2026-04-15 09:41 -43.54976 169.28227 4309 ft 252 kts 227°
2026-04-15 09:42 -43.56252 169.26530 4307 ft 255 kts 226°
2026-04-15 09:42 -43.57523 169.24854 4306 ft 256 kts 226°
2026-04-15 09:42 -43.58810 169.23152 4307 ft 254 kts 226°
2026-04-15 09:42 -43.60070 169.21479 4304 ft 253 kts 226°
2026-04-15 09:43 -43.61343 169.19789 4304 ft 252 kts 226°
2026-04-15 09:43 -43.62557 169.18185 4295 ft 228 kts 227°
2026-04-15 09:43 -43.63638 169.16753 4294 ft 205 kts 227°
2026-04-15 09:43 -43.64624 169.15437 4290 ft 197 kts 228°
2026-04-15 09:44 -43.65608 169.14124 4295 ft 195 kts 227°
2026-04-15 09:44 -43.66568 169.12827 4139 ft 191 kts 230°
2026-04-15 09:44 -43.67334 169.11422 3911 ft 175 kts 237°
2026-04-15 09:44 -43.68013 169.10113 3692 ft 163 kts 235°
2026-04-15 09:45 -43.68691 169.08908 3486 ft 154 kts 234°
2026-04-15 09:45 -43.69338 169.07764 3284 ft 146 kts 233°
2026-04-15 09:45 -43.70055 169.06835 3105 ft 141 kts 219°
2026-04-15 09:45 -43.70914 169.06200 2919 ft 139 kts 207°
2026-04-15 09:46 -43.71528 169.05958 2809 ft 136 kts 199°
2026-04-15 09:46 -43.72791 169.05739 2563 ft 139 kts 196°
2026-04-15 09:46 -43.73431 169.05619 2441 ft 138 kts 195°
2026-04-15 09:46 -43.74706 169.05394 2193 ft 142 kts 196°
2026-04-15 09:47 -43.75687 169.05225 2002 ft 142 kts 196°
2026-04-15 09:47 -43.76660 169.05059 1816 ft 141 kts 197°
2026-04-15 09:47 -43.77633 169.04889 1804 ft 142 kts 196°
2026-04-15 09:47 -43.78290 169.04772 1805 ft 144 kts 195°
2026-04-15 09:48 -43.79568 169.04560 1798 ft 127 kts 194°
2026-04-15 09:48 -43.80403 169.04417 1776 ft 117 kts 196°
2026-04-15 09:48 -43.81189 169.04279 1782 ft 113 kts 197°
2026-04-15 09:48 -43.81724 169.04240 1520 ft 120 kts 191°
2026-04-15 09:49 -43.82561 169.04100 1046 ft 124 kts 196°
2026-04-15 09:49 -43.83423 169.03987 778 ft 119 kts 184°
2026-04-15 09:49 -43.84263 169.04004 399 ft 117 kts 207°
2026-04-15 09:49 -43.84989 169.03891 318 ft 95 kts 187°
2026-04-15 09:50 -43.85653 169.03949 36 ft 109 kts 165°
2026-04-15 09:50 -43.86278 169.04339 31 ft 90 kts 183°
2026-04-15 09:50 -43.86365 169.04254 28 ft 3 kts 289°
2026-04-15 09:50 -43.86397 169.04233 30 ft 1 kts 206°
2026-04-15 09:51 -43.86444 169.04196 19 ft 11 kts 200°
2026-04-15 09:51 -43.86502 169.04168 20 ft 5 kts 199°
2026-04-15 09:51 -43.86518 169.04154 17 ft 7 kts 219°
2026-04-15 09:51 -43.86565 169.04126 18 ft 7 kts 181°
2026-04-15 09:52 -43.86587 169.04129 17 ft 0 kts 179°